Terminal Aerodrome Forecast
Issued by NWS

Home | Current Version | Previous Version | Graphics & Text | Print | Product List | Glossary On
Versions: 1 2 3 4 5 6 7 8 9 10 11 12 13 14 15 16 17 18 19 20 21
000
FTUS43 KFGF 191730
TAFBJI
TAF
KBJI 191730Z 1918/2018 13010KT P6SM BKN150
     FM200700 14010KT P6SM OVC015
     FM201100 15010KT 4SM BR OVC008
     FM201200 15010KT 1 1/2SM BR VCSH OVC003=

USA.gov is the U.S. government's official web portal to all federal, state and local government web resources and services.